createdAt,value
2017-12-04T00:00:35.288Z,92.73
2017-12-04T00:03:01.907Z,92.60
2017-12-04T00:05:28.071Z,92.75
2017-12-04T00:07:54.176Z,92.19
2017-12-04T00:10:20.532Z,92.16
2017-12-04T00:12:46.653Z,92.22
2017-12-04T00:15:12.803Z,92.24
2017-12-04T00:17:38.903Z,92.27
2017-12-04T00:20:05.012Z,92.02
2017-12-04T00:22:34.072Z,92.00
2017-12-04T00:25:00.224Z,92.61
2017-12-04T00:27:26.320Z,92.45
2017-12-04T00:29:52.438Z,92.07
2017-12-04T00:32:18.548Z,92.27
2017-12-04T00:34:44.671Z,92.29
2017-12-04T00:37:10.769Z,92.20
2017-12-04T00:39:36.924Z,92.41
2017-12-04T00:42:03.051Z,92.83
2017-12-04T00:44:29.151Z,92.85
2017-12-04T00:46:55.361Z,93.21
2017-12-04T00:49:21.616Z,93.53
2017-12-04T00:51:47.722Z,93.50
2017-12-04T00:54:13.833Z,93.79
2017-12-04T00:56:39.980Z,93.53
2017-12-04T00:59:06.144Z,93.65
2017-12-04T01:01:32.343Z,93.78
2017-12-04T01:03:58.520Z,93.98
2017-12-04T01:06:24.660Z,93.84
2017-12-04T01:08:50.770Z,94.06
2017-12-04T01:11:16.816Z,93.86
2017-12-04T01:13:42.945Z,94.09
2017-12-04T01:16:09.081Z,93.98
2017-12-04T01:18:35.164Z,94.05
2017-12-04T01:21:01.331Z,94.34
2017-12-04T01:23:27.411Z,94.29
2017-12-04T01:25:53.536Z,94.50
2017-12-04T01:28:19.646Z,94.30
2017-12-04T01:30:45.830Z,94.09
2017-12-04T01:33:11.980Z,94.02
2017-12-04T01:35:38.156Z,94.28
2017-12-04T01:38:04.259Z,94.04
2017-12-04T01:40:30.339Z,94.02
2017-12-04T01:42:56.481Z,94.38
2017-12-04T01:45:22.598Z,94.26
2017-12-04T01:47:48.688Z,93.92
2017-12-04T01:50:14.823Z,93.97
2017-12-04T01:52:40.931Z,94.28
2017-12-04T01:55:07.107Z,94.21
2017-12-04T01:57:33.262Z,94.02
2017-12-04T01:59:59.390Z,94.05
2017-12-04T02:02:25.565Z,94.31
2017-12-04T02:04:51.682Z,94.15
2017-12-04T02:07:17.824Z,94.30
2017-12-04T02:09:43.900Z,94.13
2017-12-04T02:12:10.032Z,94.21
2017-12-04T02:14:36.188Z,94.45
2017-12-04T02:17:02.382Z,94.21
2017-12-04T02:19:28.496Z,94.05
2017-12-04T02:21:54.604Z,93.91
2017-12-04T02:24:20.744Z,93.60
2017-12-04T02:26:46.879Z,93.57
2017-12-04T02:29:13.072Z,93.51
2017-12-04T02:31:39.155Z,93.55
2017-12-04T02:34:05.281Z,93.37
2017-12-04T02:36:31.382Z,94.02
2017-12-04T02:38:57.579Z,93.63
2017-12-04T02:41:23.696Z,93.73
2017-12-04T02:43:49.764Z,93.78
2017-12-04T02:46:15.846Z,94.21
2017-12-04T02:48:41.960Z,94.23
2017-12-04T02:51:08.040Z,94.08
2017-12-04T02:53:34.122Z,94.02
2017-12-04T02:56:00.351Z,94.03
2017-12-04T02:58:26.496Z,94.05
2017-12-04T03:00:52.525Z,94.02
2017-12-04T03:03:18.632Z,94.13
2017-12-04T03:05:44.740Z,94.17
2017-12-04T03:08:10.825Z,94.45
2017-12-04T03:10:36.935Z,94.74
2017-12-04T03:13:03.035Z,95.03
2017-12-04T03:15:29.144Z,95.06
2017-12-04T03:17:55.201Z,95.24
2017-12-04T03:20:21.312Z,95.42
2017-12-04T03:22:47.408Z,95.45
2017-12-04T03:25:13.443Z,94.95
2017-12-04T03:27:39.523Z,94.74
2017-12-04T03:30:05.592Z,94.69
2017-12-04T03:32:31.693Z,94.75
2017-12-04T03:34:57.780Z,94.74
2017-12-04T03:37:23.869Z,94.84
2017-12-04T03:39:49.936Z,95.15
2017-12-04T03:42:16.072Z,95.37
2017-12-04T03:44:42.167Z,95.47
2017-12-04T03:47:08.288Z,95.56
2017-12-04T03:49:34.373Z,95.46
2017-12-04T03:52:00.515Z,95.46
2017-12-04T03:54:26.655Z,95.11
2017-12-04T03:56:53.688Z,95.02
2017-12-04T03:59:19.867Z,94.91
2017-12-04T04:01:46.008Z,94.86
2017-12-04T04:04:12.172Z,94.56
2017-12-04T04:06:38.281Z,94.59
2017-12-04T04:09:04.352Z,94.62
2017-12-04T04:11:30.419Z,94.08
2017-12-04T04:13:56.519Z,93.96
2017-12-04T04:16:22.631Z,94.10
2017-12-04T04:18:48.728Z,94.13
2017-12-04T04:21:14.831Z,94.23
2017-12-04T04:23:40.888Z,93.93
2017-12-04T04:26:07.001Z,93.98
2017-12-04T04:28:33.153Z,93.98
2017-12-04T04:30:59.375Z,93.80
2017-12-04T04:33:25.561Z,93.94
2017-12-04T04:35:51.989Z,94.05
2017-12-04T04:38:18.095Z,94.23
2017-12-04T04:40:44.221Z,94.27
2017-12-04T04:43:10.284Z,94.22
2017-12-04T04:45:36.407Z,94.28
2017-12-04T04:48:02.536Z,94.40
2017-12-04T04:50:28.667Z,94.59
2017-12-04T04:52:54.805Z,94.71
2017-12-04T04:55:20.967Z,94.70
2017-12-04T04:57:47.084Z,94.85
2017-12-04T05:00:13.174Z,94.88
2017-12-04T05:02:39.333Z,94.95
2017-12-04T05:05:05.516Z,95.15
2017-12-04T05:07:31.797Z,95.40
2017-12-04T05:09:57.983Z,95.57
2017-12-04T05:12:24.096Z,95.88
2017-12-04T05:14:50.200Z,95.75
2017-12-04T05:17:16.364Z,95.70
2017-12-04T05:19:42.508Z,95.66
2017-12-04T05:22:08.896Z,95.68
2017-12-04T05:24:35.037Z,95.80
2017-12-04T05:27:01.188Z,95.73
2017-12-04T05:29:27.356Z,95.74
2017-12-04T05:31:53.717Z,95.71
2017-12-04T05:34:19.912Z,95.87
2017-12-04T05:36:46.364Z,96.02
2017-12-04T05:39:12.564Z,96.16
2017-12-04T05:41:38.755Z,96.09
2017-12-04T05:44:04.972Z,96.08
2017-12-04T05:46:31.137Z,95.97
2017-12-04T05:48:57.388Z,95.82
2017-12-04T05:51:23.612Z,95.68
2017-12-04T05:53:49.864Z,95.65
2017-12-04T05:56:15.995Z,95.42
2017-12-04T05:58:42.148Z,95.43
2017-12-04T06:01:08.340Z,95.34
2017-12-04T06:03:34.472Z,95.27
2017-12-04T06:06:00.588Z,95.04
2017-12-04T06:08:26.720Z,95.05
2017-12-04T06:10:52.836Z,94.83
2017-12-04T06:13:18.909Z,94.72
2017-12-04T06:15:45.019Z,94.64
2017-12-04T06:18:11.132Z,94.55
2017-12-04T06:20:37.273Z,94.54
2017-12-04T06:23:03.440Z,94.41
2017-12-04T06:25:29.571Z,94.38
2017-12-04T06:27:55.722Z,94.31
2017-12-04T06:30:21.896Z,94.36
2017-12-04T06:32:48.075Z,93.96
2017-12-04T06:35:14.243Z,93.97
2017-12-04T06:37:40.342Z,93.95
2017-12-04T06:40:06.504Z,93.79
2017-12-04T06:42:32.616Z,93.89
2017-12-04T06:44:58.751Z,93.73
2017-12-04T06:47:24.887Z,93.81
2017-12-04T06:49:51.004Z,93.58
2017-12-04T06:52:17.149Z,93.63
2017-12-04T06:54:43.247Z,93.62
2017-12-04T06:57:09.434Z,93.69
2017-12-04T06:59:35.605Z,93.77
2017-12-04T07:02:01.736Z,94.05
2017-12-04T07:04:27.904Z,94.42
2017-12-04T07:06:54.043Z,94.48
2017-12-04T07:09:20.160Z,94.54
2017-12-04T07:11:46.288Z,94.74
2017-12-04T07:14:12.406Z,94.90
2017-12-04T07:16:38.509Z,94.91
2017-12-04T07:19:04.629Z,94.86
2017-12-04T07:21:30.781Z,94.73
2017-12-04T07:23:56.958Z,94.50
2017-12-04T07:26:23.105Z,94.41
2017-12-04T07:28:49.218Z,94.14
2017-12-04T07:31:15.353Z,94.34
2017-12-04T07:33:41.488Z,94.10
2017-12-04T07:36:07.772Z,93.90
2017-12-04T07:38:33.832Z,93.67
2017-12-04T07:40:59.960Z,93.50
2017-12-04T07:43:26.152Z,93.31
2017-12-04T07:45:52.396Z,93.19
2017-12-04T07:48:18.528Z,93.24
2017-12-04T07:50:44.631Z,93.10
2017-12-04T07:53:10.743Z,92.96
2017-12-04T07:55:36.872Z,92.91
2017-12-04T07:58:03.494Z,92.89
2017-12-04T08:00:29.620Z,92.86
2017-12-04T08:02:55.825Z,92.83
2017-12-04T08:05:22.016Z,92.92
2017-12-04T08:07:48.173Z,93.12
2017-12-04T08:10:14.257Z,93.02
2017-12-04T08:12:40.446Z,93.40
2017-12-04T08:15:06.592Z,93.41
2017-12-04T08:17:32.720Z,93.51
2017-12-04T08:19:58.880Z,93.74
2017-12-04T08:22:25.048Z,93.78
2017-12-04T08:24:51.168Z,93.72
2017-12-04T08:27:17.293Z,94.09
2017-12-04T08:29:43.484Z,94.17
2017-12-04T08:32:09.616Z,94.34
2017-12-04T08:34:35.784Z,94.72
2017-12-04T08:37:01.960Z,94.99
2017-12-04T08:39:28.133Z,95.10
2017-12-04T08:41:54.308Z,95.00
2017-12-04T08:44:20.465Z,94.99
2017-12-04T08:46:46.612Z,94.98
2017-12-04T08:49:12.752Z,95.16
2017-12-04T08:51:38.864Z,95.44
2017-12-04T08:54:04.988Z,95.51
2017-12-04T08:56:31.093Z,95.32
2017-12-04T08:58:57.673Z,95.35
2017-12-04T09:01:23.743Z,95.35
2017-12-04T09:03:49.890Z,95.35
2017-12-04T09:06:16.017Z,95.38
2017-12-04T09:08:42.131Z,95.34
2017-12-04T09:11:08.312Z,95.61
2017-12-04T09:13:34.464Z,95.53
2017-12-04T09:16:00.604Z,95.47
2017-12-04T09:18:26.670Z,95.46
2017-12-04T09:20:52.815Z,95.37
2017-12-04T09:23:18.955Z,95.34
2017-12-04T09:25:45.092Z,95.35
2017-12-04T09:28:11.265Z,95.40
2017-12-04T09:30:37.382Z,95.11
2017-12-04T09:33:03.508Z,94.75
2017-12-04T09:35:29.632Z,94.57
2017-12-04T09:37:55.760Z,94.57
2017-12-04T09:40:21.948Z,94.77
2017-12-04T09:42:48.068Z,94.92
2017-12-04T09:45:14.232Z,94.93
2017-12-04T09:47:40.328Z,94.62
2017-12-04T09:50:06.579Z,94.64
2017-12-04T09:52:32.612Z,94.78
2017-12-04T09:54:58.724Z,94.81
2017-12-04T09:57:24.816Z,94.87
2017-12-04T09:59:50.937Z,94.54
2017-12-04T10:02:17.043Z,94.61
2017-12-04T10:04:43.177Z,94.73
2017-12-04T10:07:09.326Z,94.44
2017-12-04T10:09:35.464Z,94.08
2017-12-04T10:12:01.585Z,93.81
2017-12-04T10:14:27.695Z,93.85
2017-12-04T10:16:53.799Z,93.89
2017-12-04T10:19:19.937Z,93.89
2017-12-04T10:21:46.011Z,93.91
2017-12-04T10:24:12.122Z,94.08
2017-12-04T10:26:38.320Z,94.16
2017-12-04T10:29:04.400Z,94.31
2017-12-04T10:31:30.431Z,94.35
2017-12-04T10:33:56.556Z,94.68
2017-12-04T10:36:22.632Z,94.70
2017-12-04T10:38:48.744Z,95.07
2017-12-04T10:41:14.808Z,94.87
2017-12-04T10:43:40.877Z,94.91
2017-12-04T10:46:06.979Z,94.92
2017-12-04T10:48:33.128Z,95.21
2017-12-04T10:50:59.171Z,94.80
2017-12-04T10:53:25.305Z,94.65
2017-12-04T10:55:51.392Z,94.54
2017-12-04T10:58:17.622Z,94.33
2017-12-04T11:00:44.114Z,94.31
2017-12-04T11:03:10.228Z,94.26
2017-12-04T11:05:36.380Z,94.10
2017-12-04T11:08:02.548Z,94.19
2017-12-04T11:10:28.638Z,94.02
2017-12-04T11:12:54.796Z,93.97
2017-12-04T11:15:20.945Z,93.99
2017-12-04T11:17:47.022Z,94.28
2017-12-04T11:20:13.120Z,94.77
2017-12-04T11:22:39.220Z,94.04
2017-12-04T11:25:05.336Z,93.57
2017-12-04T11:27:31.459Z,93.29
2017-12-04T11:29:57.644Z,93.12
2017-12-04T11:32:23.789Z,93.26
2017-12-04T11:34:49.920Z,93.87
2017-12-04T11:37:16.039Z,93.25
2017-12-04T11:39:42.144Z,93.81
2017-12-04T11:42:08.400Z,93.68
2017-12-04T11:44:34.585Z,93.31
2017-12-04T11:47:00.681Z,93.49
2017-12-04T11:49:26.881Z,93.08
2017-12-04T11:51:52.912Z,92.54
2017-12-04T11:54:19.044Z,92.76
2017-12-04T11:56:45.122Z,92.71
2017-12-04T11:59:11.256Z,93.20
2017-12-04T12:01:37.436Z,93.81
2017-12-04T12:04:03.552Z,93.45
2017-12-04T12:06:29.656Z,93.66
2017-12-04T12:08:55.879Z,93.18
2017-12-04T12:11:22.014Z,92.98
2017-12-04T12:13:48.105Z,93.07
2017-12-04T12:16:14.242Z,92.94
2017-12-04T12:18:40.349Z,92.81
2017-12-04T12:21:06.476Z,92.66
2017-12-04T12:23:32.584Z,92.57
2017-12-04T12:25:58.704Z,92.61
2017-12-04T12:28:24.840Z,92.82
2017-12-04T12:30:50.952Z,92.87
2017-12-04T12:33:17.013Z,92.87
2017-12-04T12:35:43.145Z,93.11
2017-12-04T12:38:09.293Z,93.03
2017-12-04T12:40:35.430Z,93.67
2017-12-04T12:43:01.545Z,93.11
2017-12-04T12:45:27.697Z,93.17
2017-12-04T12:47:53.813Z,92.79
2017-12-04T12:50:19.943Z,92.89
2017-12-04T12:52:46.598Z,93.20
2017-12-04T12:55:12.739Z,93.75
2017-12-04T12:57:38.862Z,94.69
2017-12-04T13:00:05.030Z,94.20
2017-12-04T13:02:31.219Z,93.66
2017-12-04T13:04:57.319Z,94.56
2017-12-04T13:07:23.440Z,94.35
2017-12-04T13:09:49.628Z,93.87
2017-12-04T13:12:15.763Z,94.03
2017-12-04T13:14:41.928Z,94.31
2017-12-04T13:17:08.059Z,93.73
2017-12-04T13:19:34.124Z,93.40
2017-12-04T13:22:00.243Z,93.88
2017-12-04T13:24:26.349Z,93.64
2017-12-04T13:26:52.566Z,93.51
2017-12-04T13:29:18.691Z,93.45
2017-12-04T13:31:44.791Z,94.14
2017-12-04T13:37:20.387Z,93.63
2017-12-04T13:39:46.497Z,93.62
2017-12-04T13:42:12.652Z,93.34
2017-12-04T13:44:38.776Z,93.28
2017-12-04T13:47:04.949Z,93.25
2017-12-04T13:49:31.068Z,93.20
2017-12-04T13:51:57.352Z,93.29
2017-12-04T13:54:23.483Z,93.63
2017-12-04T13:56:49.624Z,93.89
2017-12-04T13:59:15.756Z,94.59
2017-12-04T14:01:41.964Z,94.45
2017-12-04T14:04:08.100Z,94.88
2017-12-04T14:06:34.211Z,95.35
2017-12-04T14:09:00.456Z,95.84
2017-12-04T14:11:26.628Z,95.68
2017-12-04T14:13:52.779Z,95.79
2017-12-04T14:16:18.877Z,96.35
2017-12-04T14:18:44.998Z,96.70
2017-12-04T14:21:11.148Z,96.83
2017-12-04T14:23:37.360Z,97.09
2017-12-04T14:26:03.449Z,97.45
2017-12-04T14:28:29.580Z,97.46
2017-12-04T14:30:55.712Z,97.46
2017-12-04T14:33:21.854Z,97.24
2017-12-04T14:35:47.978Z,97.21
2017-12-04T14:38:14.131Z,97.41
2017-12-04T14:40:40.347Z,97.40
2017-12-04T14:43:06.456Z,97.28
2017-12-04T14:45:32.583Z,97.30
2017-12-04T14:47:58.754Z,97.16
2017-12-04T14:50:24.903Z,97.20
2017-12-04T14:52:50.969Z,97.25
2017-12-04T14:55:17.036Z,97.06
2017-12-04T14:57:43.096Z,97.32
2017-12-04T15:00:09.213Z,97.14
2017-12-04T15:02:35.274Z,97.02
2017-12-04T15:05:01.409Z,96.61
2017-12-04T15:07:27.532Z,96.39
2017-12-04T15:09:53.653Z,96.37
2017-12-04T15:12:19.748Z,96.13
2017-12-04T15:14:45.944Z,96.06
2017-12-04T15:17:11.972Z,96.52
2017-12-04T15:19:38.148Z,96.74
2017-12-04T15:22:04.244Z,96.79
2017-12-04T15:24:30.320Z,96.82
2017-12-04T15:26:56.404Z,96.64
2017-12-04T15:29:22.503Z,96.73
2017-12-04T15:31:48.590Z,96.82
2017-12-04T15:34:14.660Z,97.00
2017-12-04T15:36:40.828Z,97.14
2017-12-04T15:39:06.906Z,97.08
2017-12-04T15:41:33.018Z,96.54
2017-12-04T15:43:59.142Z,96.31
2017-12-04T15:46:25.263Z,96.22
2017-12-04T15:48:51.401Z,95.81
2017-12-04T15:51:17.485Z,95.94
2017-12-04T15:53:43.646Z,95.72
2017-12-04T15:56:09.789Z,96.01
2017-12-04T15:58:35.868Z,96.22
2017-12-04T16:01:01.992Z,95.83
2017-12-04T16:03:28.108Z,95.75
2017-12-04T16:05:54.221Z,95.62
2017-12-04T16:08:20.338Z,95.75
2017-12-04T16:10:46.424Z,95.61
2017-12-04T16:13:12.588Z,95.19
2017-12-04T16:15:38.724Z,95.09
2017-12-04T16:18:04.962Z,95.97
2017-12-04T16:20:31.026Z,96.08
2017-12-04T16:22:57.129Z,95.83
2017-12-04T16:25:23.203Z,96.61
2017-12-04T16:27:49.307Z,96.26
2017-12-04T16:30:15.489Z,95.67
2017-12-04T16:32:41.692Z,95.28
2017-12-04T16:35:07.828Z,95.19
2017-12-04T16:37:34.049Z,95.06
2017-12-04T16:40:00.186Z,95.09
2017-12-04T16:42:26.446Z,95.38
2017-12-04T16:44:52.607Z,95.42
2017-12-04T16:47:18.751Z,95.75
2017-12-04T16:49:44.877Z,95.76
2017-12-04T16:52:11.046Z,95.76
2017-12-04T16:54:37.157Z,95.84
2017-12-04T16:57:03.272Z,95.95
2017-12-04T16:59:29.396Z,95.91
2017-12-04T17:01:55.865Z,96.09
2017-12-04T17:04:21.977Z,96.50
2017-12-04T17:06:48.062Z,96.76
2017-12-04T17:09:14.225Z,96.63
2017-12-04T17:11:40.416Z,96.55
2017-12-04T17:14:06.571Z,96.66
2017-12-04T17:16:32.795Z,96.95
2017-12-04T17:18:58.997Z,97.09
2017-12-04T17:21:25.199Z,97.21
2017-12-04T17:23:51.339Z,97.14
2017-12-04T17:26:17.505Z,97.49
2017-12-04T17:28:43.671Z,97.37
2017-12-04T17:31:09.849Z,97.44
2017-12-04T17:33:35.976Z,97.53
2017-12-04T17:36:02.092Z,97.73
2017-12-04T17:38:28.196Z,97.92
2017-12-04T17:40:54.325Z,97.75
2017-12-04T17:43:20.464Z,97.68
2017-12-04T17:45:46.631Z,97.46
2017-12-04T17:48:12.767Z,97.00
2017-12-04T17:50:38.873Z,96.71
2017-12-04T17:53:04.971Z,97.00
2017-12-04T17:55:31.117Z,97.05
2017-12-04T17:57:57.302Z,97.14
2017-12-04T18:00:23.411Z,97.19
2017-12-04T18:02:49.560Z,97.47
2017-12-04T18:05:15.686Z,97.41
2017-12-04T18:07:41.801Z,97.53
2017-12-04T18:10:07.905Z,97.48
2017-12-04T18:12:33.969Z,97.31
2017-12-04T18:15:00.102Z,97.10
2017-12-04T18:17:26.246Z,96.96
2017-12-04T18:19:52.340Z,96.90
2017-12-04T18:22:18.448Z,97.22
2017-12-04T18:24:44.545Z,97.09
2017-12-04T18:27:10.715Z,96.82
2017-12-04T18:29:36.838Z,96.63
2017-12-04T18:32:02.938Z,96.79
2017-12-04T18:34:29.105Z,96.85
2017-12-04T18:36:55.781Z,96.88
2017-12-04T18:39:21.916Z,96.56
2017-12-04T18:41:48.125Z,95.88
2017-12-04T18:44:14.270Z,95.48
2017-12-04T18:46:40.420Z,95.66
2017-12-04T18:49:06.549Z,95.27
2017-12-04T18:51:32.631Z,95.39
2017-12-04T18:53:58.842Z,95.29
2017-12-04T18:56:25.437Z,95.33
2017-12-04T18:58:51.518Z,95.97
2017-12-04T19:01:17.655Z,96.19
2017-12-04T19:03:43.733Z,95.89
2017-12-04T19:06:09.844Z,95.47
2017-12-04T19:08:35.933Z,95.35
2017-12-04T19:11:02.002Z,95.48
2017-12-04T19:13:28.201Z,95.45
2017-12-04T19:15:54.340Z,95.53
2017-12-04T19:18:20.576Z,95.57
2017-12-04T19:20:46.796Z,95.59
2017-12-04T19:23:13.123Z,95.64
2017-12-04T19:25:39.408Z,95.64
2017-12-04T19:28:05.687Z,95.76
2017-12-04T19:30:32.070Z,95.89
2017-12-04T19:32:58.267Z,96.00
2017-12-04T19:35:24.567Z,96.23
2017-12-04T19:37:50.782Z,96.38
2017-12-04T19:40:17.211Z,96.61
2017-12-04T19:42:43.566Z,96.76
2017-12-04T19:45:09.909Z,97.39
2017-12-04T19:47:36.250Z,97.82
2017-12-04T19:50:02.576Z,97.64
2017-12-04T19:52:28.846Z,96.98
2017-12-04T19:54:55.098Z,96.62
2017-12-04T19:57:21.439Z,96.49
2017-12-04T19:59:47.792Z,96.38
2017-12-04T20:02:14.115Z,96.61
2017-12-04T20:04:40.666Z,96.88
2017-12-04T20:07:06.973Z,96.72
2017-12-04T20:09:33.242Z,96.65
2017-12-04T20:11:59.591Z,96.44
2017-12-04T20:14:25.908Z,96.36
2017-12-04T20:16:52.183Z,96.02
2017-12-04T20:19:18.456Z,95.81
2017-12-04T20:21:44.819Z,95.79
2017-12-04T20:24:11.160Z,95.84
2017-12-04T20:26:37.617Z,95.96
2017-12-04T20:29:03.966Z,96.06
2017-12-04T20:34:22.558Z,96.30
2017-12-04T20:36:48.728Z,96.34
2017-12-04T20:39:14.938Z,96.49
2017-12-04T20:41:41.152Z,96.65
2017-12-04T20:44:07.265Z,96.89
2017-12-04T20:46:33.450Z,96.77
2017-12-04T20:48:59.615Z,96.83
2017-12-04T20:51:25.768Z,96.94
2017-12-04T20:53:51.915Z,96.98
2017-12-04T20:56:18.119Z,97.00
2017-12-04T20:58:44.265Z,97.05
2017-12-04T21:01:10.657Z,96.97
2017-12-04T21:03:36.818Z,97.12
2017-12-04T21:06:02.982Z,97.03
2017-12-04T21:08:41.292Z,97.05
2017-12-04T21:11:19.702Z,97.01
2017-12-04T21:13:58.080Z,97.11
2017-12-04T21:19:30.039Z,97.14
2017-12-04T21:21:56.212Z,97.04
2017-12-04T21:24:22.397Z,97.04
2017-12-04T21:26:48.587Z,96.89
2017-12-04T21:29:14.676Z,96.81
2017-12-04T21:31:40.825Z,96.77
2017-12-04T21:34:06.988Z,96.93
2017-12-04T21:36:33.365Z,96.90
2017-12-04T21:38:59.480Z,97.24
2017-12-04T21:41:25.800Z,97.00
2017-12-04T21:43:51.892Z,97.01
2017-12-04T21:46:17.972Z,96.70
2017-12-04T21:48:44.448Z,96.60
2017-12-04T21:51:10.599Z,96.68
2017-12-04T21:53:36.671Z,96.79
2017-12-04T21:56:02.768Z,96.66
2017-12-04T21:58:28.840Z,96.54
2017-12-04T22:00:54.929Z,96.49
2017-12-04T22:03:20.980Z,96.58
2017-12-04T22:05:47.084Z,96.62
2017-12-04T22:08:13.146Z,96.54
2017-12-04T22:10:39.249Z,96.78
2017-12-04T22:13:05.332Z,96.68
2017-12-04T22:15:31.424Z,96.71
2017-12-04T22:17:57.501Z,96.89
2017-12-04T22:20:23.552Z,96.88
2017-12-04T22:22:49.629Z,96.85
2017-12-04T22:25:15.675Z,96.94
2017-12-04T22:27:41.760Z,96.95
2017-12-04T22:30:07.823Z,97.02
2017-12-04T22:32:33.901Z,97.05
2017-12-04T22:35:00.041Z,97.10
2017-12-04T22:37:26.123Z,97.12
2017-12-04T22:39:52.210Z,97.12
2017-12-04T22:42:18.380Z,97.01
2017-12-04T22:44:44.408Z,96.99
2017-12-04T22:47:10.555Z,97.10
2017-12-04T22:49:36.624Z,97.06
2017-12-04T22:52:03.350Z,96.92
2017-12-04T22:54:29.450Z,96.89
2017-12-04T22:56:55.530Z,96.89
2017-12-04T22:59:21.707Z,96.79
2017-12-04T23:01:47.849Z,96.89
2017-12-04T23:04:13.933Z,97.14
2017-12-04T23:06:40.016Z,96.94
2017-12-04T23:09:06.220Z,96.84
2017-12-04T23:11:32.311Z,97.03
2017-12-04T23:13:58.423Z,97.04
2017-12-04T23:16:24.527Z,96.80
2017-12-04T23:18:50.667Z,96.78
2017-12-04T23:21:16.755Z,96.87
2017-12-04T23:23:42.844Z,96.80
2017-12-04T23:26:08.914Z,96.78
2017-12-04T23:28:35.060Z,96.71
2017-12-04T23:31:01.148Z,96.84
2017-12-04T23:33:27.275Z,97.16
2017-12-04T23:35:53.388Z,97.09
2017-12-04T23:38:19.446Z,96.86
2017-12-04T23:40:45.503Z,96.80
2017-12-04T23:43:11.616Z,96.71
2017-12-04T23:45:37.695Z,96.72
2017-12-04T23:48:03.836Z,96.67
2017-12-04T23:50:29.943Z,96.61
2017-12-04T23:52:56.084Z,96.78
2017-12-04T23:55:22.188Z,96.83
2017-12-04T23:57:48.344Z,96.68
